createdAt,value
2019-05-26T00:00:09.235Z,12.38
2019-05-26T00:01:09.199Z,12.49
2019-05-26T00:02:09.187Z,12.29
2019-05-26T00:03:09.176Z,12.41
2019-05-26T00:04:09.165Z,12.35
2019-05-26T00:05:09.179Z,12.32
2019-05-26T00:06:09.144Z,12.23
2019-05-26T00:07:09.132Z,12.27
2019-05-26T00:08:09.121Z,12.27
2019-05-26T00:09:09.153Z,12.24
2019-05-26T00:10:09.313Z,12.28
2019-05-26T00:11:09.097Z,12.23
2019-05-26T00:12:09.086Z,12.29
2019-05-26T00:13:09.065Z,12.24
2019-05-26T00:14:09.060Z,12.28
2019-05-26T00:15:09.109Z,12.32
2019-05-26T00:16:09.039Z,12.23
2019-05-26T00:17:09.024Z,12.27
2019-05-26T00:18:09.012Z,12.24
2019-05-26T00:19:09.010Z,12.24
2019-05-26T00:20:09.014Z,12.28
2019-05-26T00:21:08.984Z,12.23
2019-05-26T00:22:08.966Z,12.13
2019-05-26T00:23:08.956Z,12.23
2019-05-26T00:24:08.954Z,12.13
2019-05-26T00:25:08.958Z,12.12
2019-05-26T00:26:08.923Z,12.12
2019-05-26T00:27:08.912Z,12.12
2019-05-26T00:28:08.898Z,12.02
2019-05-26T00:29:08.888Z,12.09
2019-05-26T00:30:08.904Z,12.04
2019-05-26T00:31:08.869Z,12.02
2019-05-26T00:32:08.876Z,12.02
2019-05-26T00:33:08.854Z,12.07
2019-05-26T00:34:08.834Z,12.07
2019-05-26T00:35:08.856Z,12.02
2019-05-26T00:36:08.811Z,12.04
2019-05-26T00:37:08.799Z,12.02
2019-05-26T00:38:08.790Z,12.04
2019-05-26T00:39:08.778Z,12.07
2019-05-26T00:40:08.794Z,12.09
2019-05-26T00:41:08.758Z,12.05
2019-05-26T00:42:08.757Z,12.09
2019-05-26T00:43:08.736Z,12.04
2019-05-26T00:44:08.724Z,12.13
2019-05-26T00:45:08.736Z,12.07
2019-05-26T00:46:08.701Z,11.99
2019-05-26T00:47:08.689Z,12.04
2019-05-26T00:48:08.682Z,11.88
2019-05-26T00:49:08.666Z,11.96
2019-05-26T00:50:08.679Z,11.95
2019-05-26T00:51:08.645Z,12.01
2019-05-26T00:52:08.638Z,11.96
2019-05-26T00:53:08.624Z,11.90
2019-05-26T00:54:08.616Z,11.95
2019-05-26T00:55:08.631Z,11.95
2019-05-26T00:56:08.591Z,11.96
2019-05-26T00:57:08.584Z,11.86
2019-05-26T00:58:08.570Z,11.96
2019-05-26T00:59:08.560Z,11.86
2019-05-26T01:00:08.576Z,11.90
2019-05-26T01:01:08.538Z,11.83
2019-05-26T01:02:08.548Z,11.78
2019-05-26T01:03:08.519Z,11.80
2019-05-26T01:04:08.505Z,11.79
2019-05-26T01:05:08.516Z,11.82
2019-05-26T01:06:08.484Z,11.79
2019-05-26T01:07:08.472Z,11.80
2019-05-26T01:08:08.458Z,11.79
2019-05-26T01:09:08.450Z,11.64
2019-05-26T01:10:08.463Z,11.69
2019-05-26T01:11:08.425Z,11.69
2019-05-26T01:12:08.416Z,11.72
2019-05-26T01:13:08.402Z,11.62
2019-05-26T01:14:08.392Z,11.55
2019-05-26T01:15:08.427Z,11.55
2019-05-26T01:16:08.373Z,11.55
2019-05-26T01:17:08.363Z,11.58
2019-05-26T01:18:08.372Z,11.58
2019-05-26T01:19:08.339Z,11.58
2019-05-26T01:20:08.353Z,11.60
2019-05-26T01:21:08.317Z,11.52
2019-05-26T01:22:08.306Z,11.47
2019-05-26T01:23:08.294Z,11.58
2019-05-26T01:24:08.284Z,11.49
2019-05-26T01:25:08.305Z,11.54
2019-05-26T01:26:08.260Z,11.55
2019-05-26T01:27:08.256Z,11.46
2019-05-26T01:28:08.255Z,11.51
2019-05-26T01:29:08.230Z,11.46
2019-05-26T01:30:08.257Z,11.49
2019-05-26T01:31:08.207Z,11.42
2019-05-26T01:32:08.196Z,11.47
2019-05-26T01:33:08.186Z,11.43
2019-05-26T01:34:08.175Z,11.39
2019-05-26T01:35:08.189Z,11.44
2019-05-26T01:36:08.154Z,11.40
2019-05-26T01:37:08.144Z,11.40
2019-05-26T01:38:22.578Z,11.37
2019-05-26T01:39:09.119Z,11.33
2019-05-26T01:40:08.133Z,11.29
2019-05-26T01:41:08.120Z,11.39
2019-05-26T01:42:08.361Z,11.35
2019-05-26T01:43:08.076Z,11.32
2019-05-26T01:44:08.065Z,11.36
2019-05-26T01:45:08.114Z,11.36
2019-05-26T01:46:08.049Z,11.33
2019-05-26T01:47:08.033Z,11.32
2019-05-26T01:48:08.024Z,11.27
2019-05-26T01:49:08.011Z,11.27
2019-05-26T01:50:08.028Z,11.28
2019-05-26T01:51:08.009Z,11.32
2019-05-26T01:52:07.980Z,11.27
2019-05-26T01:53:07.966Z,11.24
2019-05-26T01:54:07.957Z,11.29
2019-05-26T01:55:07.972Z,11.19
2019-05-26T01:56:07.935Z,11.21
2019-05-26T01:57:07.922Z,11.18
2019-05-26T01:58:07.914Z,11.18
2019-05-26T01:59:07.904Z,11.14
2019-05-26T02:00:07.919Z,11.15
2019-05-26T02:01:07.882Z,11.15
2019-05-26T02:02:07.871Z,11.15
2019-05-26T02:03:07.860Z,11.10
2019-05-26T02:04:07.856Z,11.10
2019-05-26T02:05:07.863Z,10.99
2019-05-26T02:06:07.831Z,11.07
2019-05-26T02:07:07.816Z,11.06
2019-05-26T02:08:11.658Z,10.99
2019-05-26T02:09:07.792Z,10.97
2019-05-26T02:10:07.808Z,10.99
2019-05-26T02:11:07.770Z,10.92
2019-05-26T02:12:07.764Z,10.82
2019-05-26T02:13:07.750Z,10.88
2019-05-26T02:14:07.758Z,10.79
2019-05-26T02:15:07.753Z,10.82
2019-05-26T02:16:07.717Z,10.81
2019-05-26T02:17:07.706Z,10.73
2019-05-26T02:18:07.694Z,10.78
2019-05-26T02:19:07.682Z,10.73
2019-05-26T02:20:07.699Z,10.71
2019-05-26T02:21:07.762Z,10.71
2019-05-26T02:22:07.648Z,10.67
2019-05-26T02:23:07.639Z,10.67
2019-05-26T02:24:07.628Z,10.67
2019-05-26T02:25:07.639Z,10.61
2019-05-26T02:26:07.603Z,10.64
2019-05-26T02:27:07.591Z,10.66
2019-05-26T02:28:07.582Z,10.59
2019-05-26T02:29:07.643Z,10.63
2019-05-26T02:30:07.590Z,10.52
2019-05-26T02:31:07.559Z,10.53
2019-05-26T02:32:07.535Z,10.51
2019-05-26T02:33:07.525Z,10.53
2019-05-26T02:34:07.515Z,10.53
2019-05-26T02:35:07.534Z,10.53
2019-05-26T02:36:07.493Z,10.53
2019-05-26T02:37:07.488Z,10.55
2019-05-26T02:38:07.471Z,10.56
2019-05-26T02:39:07.460Z,10.52
2019-05-26T02:40:07.475Z,10.41
2019-05-26T02:41:07.440Z,10.48
2019-05-26T02:42:07.426Z,10.53
2019-05-26T02:43:07.420Z,10.42
2019-05-26T02:44:07.403Z,10.44
2019-05-26T02:45:07.416Z,10.33
2019-05-26T02:46:07.397Z,10.27
2019-05-26T02:47:07.368Z,10.36
2019-05-26T02:48:07.360Z,10.27
2019-05-26T02:49:07.349Z,10.25
2019-05-26T02:50:07.371Z,10.14
2019-05-26T02:51:07.326Z,10.09
2019-05-26T02:52:07.327Z,10.17
2019-05-26T02:53:07.302Z,10.05
2019-05-26T02:54:07.302Z,10.07
2019-05-26T02:55:07.307Z,10.12
2019-05-26T02:56:07.271Z,10.09
2019-05-26T02:57:07.259Z,10.09
2019-05-26T02:58:07.256Z,10.07
2019-05-26T02:59:07.241Z,9.96
2019-05-26T03:00:07.263Z,9.90
2019-05-26T03:01:07.214Z,9.91
2019-05-26T03:02:07.202Z,9.94
2019-05-26T03:03:07.194Z,9.87
2019-05-26T03:04:07.183Z,9.89
2019-05-26T03:05:07.197Z,9.89
2019-05-26T03:06:07.159Z,9.78
2019-05-26T03:07:07.149Z,9.76
2019-05-26T03:08:07.141Z,9.84
2019-05-26T03:09:22.128Z,9.81
2019-05-26T03:10:08.145Z,9.86
2019-05-26T03:11:07.107Z,9.79
2019-05-26T03:12:07.098Z,9.86
2019-05-26T03:13:07.089Z,9.87
2019-05-26T03:14:07.078Z,9.84
2019-05-26T03:15:07.090Z,9.84
2019-05-26T03:16:07.058Z,9.81
2019-05-26T03:17:07.043Z,9.81
2019-05-26T03:18:07.055Z,9.83
2019-05-26T03:19:07.022Z,9.81
2019-05-26T03:20:07.041Z,9.86
2019-05-26T03:21:07.000Z,9.72
2019-05-26T03:22:06.989Z,9.84
2019-05-26T03:23:06.978Z,9.84
2019-05-26T03:24:06.969Z,9.86
2019-05-26T03:25:06.982Z,9.90
2019-05-26T03:26:06.978Z,10.01
2019-05-26T03:27:06.935Z,9.90
2019-05-26T03:28:06.925Z,9.89
2019-05-26T03:29:06.915Z,9.84
2019-05-26T03:30:06.928Z,9.83
2019-05-26T03:31:06.892Z,9.81
2019-05-26T03:32:06.882Z,9.84
2019-05-26T03:33:06.891Z,9.78
2019-05-26T03:34:06.860Z,9.84
2019-05-26T03:35:06.878Z,9.81
2019-05-26T03:36:10.349Z,9.81
2019-05-26T03:37:06.825Z,9.86
2019-05-26T03:38:06.825Z,9.79
2019-05-26T03:39:06.804Z,9.81
2019-05-26T03:40:06.827Z,9.87
2019-05-26T03:41:06.783Z,9.81
2019-05-26T03:42:06.776Z,9.84
2019-05-26T03:43:06.762Z,9.79
2019-05-26T03:44:06.754Z,9.84
2019-05-26T03:45:06.764Z,9.81
2019-05-26T03:46:06.731Z,9.83
2019-05-26T03:47:06.719Z,9.79
2019-05-26T03:48:06.706Z,9.74
2019-05-26T03:49:06.702Z,9.74
2019-05-26T03:50:06.722Z,9.75
2019-05-26T03:51:06.683Z,9.75
2019-05-26T03:52:06.664Z,9.81
2019-05-26T03:53:06.802Z,9.79
2019-05-26T03:54:06.643Z,9.78
2019-05-26T03:55:06.657Z,9.79
2019-05-26T03:56:06.626Z,9.86
2019-05-26T03:57:06.609Z,9.84
2019-05-26T03:58:06.599Z,9.84
2019-05-26T03:59:06.607Z,9.83
2019-05-26T04:00:06.619Z,9.87
2019-05-26T04:01:06.569Z,9.90
2019-05-26T04:02:06.557Z,9.84
2019-05-26T04:03:06.545Z,9.86
2019-05-26T04:04:06.536Z,9.94
2019-05-26T04:05:06.550Z,9.99
2019-05-26T04:06:06.512Z,9.90
2019-05-26T04:07:06.504Z,9.89
2019-05-26T04:08:06.494Z,9.91
2019-05-26T04:09:06.498Z,9.86
2019-05-26T04:10:06.659Z,9.91
2019-05-26T04:11:06.462Z,9.89
2019-05-26T04:12:06.449Z,9.96
2019-05-26T04:13:06.436Z,9.97
2019-05-26T04:14:06.441Z,10.02
2019-05-26T04:15:06.446Z,9.97
2019-05-26T04:16:06.415Z,10.05
2019-05-26T04:17:06.394Z,10.04
2019-05-26T04:18:06.389Z,10.08
2019-05-26T04:19:06.375Z,10.08
2019-05-26T04:20:06.409Z,10.15
2019-05-26T04:21:06.367Z,10.14
2019-05-26T04:22:06.348Z,10.20
2019-05-26T04:23:06.331Z,10.15
2019-05-26T04:24:06.320Z,10.20
2019-05-26T04:25:06.363Z,10.18
2019-05-26T04:26:06.301Z,10.26
2019-05-26T04:27:06.295Z,10.27
2019-05-26T04:28:06.296Z,10.34
2019-05-26T04:29:06.275Z,10.30
2019-05-26T04:30:06.284Z,10.30
2019-05-26T04:31:06.250Z,10.33
2019-05-26T04:32:06.284Z,10.38
2019-05-26T04:33:06.222Z,10.41
2019-05-26T04:34:06.212Z,10.38
2019-05-26T04:35:06.250Z,10.51
2019-05-26T04:36:06.203Z,10.41
2019-05-26T04:37:06.197Z,10.42
2019-05-26T04:38:06.168Z,10.53
2019-05-26T04:39:06.159Z,10.44
2019-05-26T04:40:25.019Z,10.38
2019-05-26T04:41:07.135Z,10.45
2019-05-26T04:42:06.132Z,10.41
2019-05-26T04:43:06.116Z,10.44
2019-05-26T04:44:06.116Z,10.51
2019-05-26T04:45:06.244Z,10.42
2019-05-26T04:46:06.081Z,10.52
2019-05-26T04:47:06.071Z,10.53
2019-05-26T04:48:06.082Z,10.55
2019-05-26T04:49:06.049Z,10.59
2019-05-26T04:50:06.062Z,10.56
2019-05-26T04:51:06.029Z,10.60
2019-05-26T04:52:06.017Z,10.53
2019-05-26T04:53:07.391Z,10.56
2019-05-26T04:54:06.056Z,10.56
2019-05-26T04:55:06.060Z,10.51
2019-05-26T04:56:05.988Z,10.51
2019-05-26T04:57:05.983Z,10.64
2019-05-26T04:58:05.945Z,10.63
2019-05-26T04:59:05.946Z,10.70
2019-05-26T05:00:05.955Z,10.67
2019-05-26T05:01:05.917Z,10.76
2019-05-26T05:02:05.937Z,10.68
2019-05-26T05:03:05.910Z,10.79
2019-05-26T05:04:05.891Z,10.92
2019-05-26T05:05:05.920Z,10.85
2019-05-26T05:06:05.866Z,10.91
2019-05-26T05:07:05.848Z,10.97
2019-05-26T05:08:05.835Z,10.94
2019-05-26T05:09:05.826Z,11.07
2019-05-26T05:10:05.840Z,11.00
2019-05-26T05:11:05.811Z,11.14
2019-05-26T05:12:05.792Z,11.24
2019-05-26T05:13:05.785Z,11.21
2019-05-26T05:14:05.769Z,11.22
2019-05-26T05:15:05.782Z,11.33
2019-05-26T05:16:05.761Z,11.37
2019-05-26T05:17:05.741Z,11.35
2019-05-26T05:18:05.744Z,11.35
2019-05-26T05:19:05.712Z,11.39
2019-05-26T05:20:05.727Z,11.37
2019-05-26T05:21:05.716Z,11.44
2019-05-26T05:22:05.685Z,11.37
2019-05-26T05:23:05.674Z,11.40
2019-05-26T05:24:05.672Z,11.52
2019-05-26T05:25:13.902Z,11.52
2019-05-26T05:26:06.673Z,11.61
2019-05-26T05:27:05.628Z,11.78
2019-05-26T05:28:05.623Z,11.73
2019-05-26T05:29:05.605Z,11.86
2019-05-26T05:30:05.617Z,11.90
2019-05-26T05:31:05.584Z,11.86
2019-05-26T05:32:05.576Z,11.99
2019-05-26T05:33:05.572Z,12.12
2019-05-26T05:34:05.550Z,12.04
2019-05-26T05:35:05.565Z,12.14
2019-05-26T05:36:05.534Z,12.16
2019-05-26T05:37:05.518Z,12.23
2019-05-26T05:38:05.511Z,12.17
2019-05-26T05:39:05.495Z,12.24
2019-05-26T05:40:05.509Z,12.28
2019-05-26T05:41:05.474Z,12.24
2019-05-26T05:42:12.739Z,12.31
2019-05-26T05:43:05.458Z,12.31
2019-05-26T05:44:05.450Z,12.41
2019-05-26T05:45:05.455Z,12.45
2019-05-26T05:46:05.430Z,12.49
2019-05-26T05:47:05.408Z,12.50
2019-05-26T05:48:05.397Z,12.56
2019-05-26T05:49:05.388Z,12.57
2019-05-26T05:50:05.402Z,12.59
2019-05-26T05:51:05.363Z,12.68
2019-05-26T05:52:05.349Z,12.62
2019-05-26T05:53:05.344Z,12.65
2019-05-26T05:54:05.369Z,12.72
2019-05-26T05:55:05.345Z,12.68
2019-05-26T05:56:05.345Z,12.77
2019-05-26T05:57:05.296Z,12.79
2019-05-26T05:58:05.287Z,12.83
2019-05-26T05:59:05.274Z,12.96
2019-05-26T06:00:05.292Z,12.89
2019-05-26T06:01:05.253Z,13.08
2019-05-26T06:02:05.244Z,13.10
2019-05-26T06:03:05.231Z,13.07
2019-05-26T06:04:05.218Z,13.23
2019-05-26T06:05:05.234Z,13.25
2019-05-26T06:06:05.209Z,13.29
2019-05-26T06:07:05.190Z,13.38
2019-05-26T06:08:05.176Z,13.42
2019-05-26T06:09:05.164Z,13.51
2019-05-26T06:10:05.180Z,13.41
2019-05-26T06:11:15.890Z,13.54
2019-05-26T06:12:06.131Z,13.54
2019-05-26T06:13:05.121Z,13.49
2019-05-26T06:14:05.112Z,13.45
2019-05-26T06:15:05.124Z,13.54
2019-05-26T06:16:05.088Z,13.57
2019-05-26T06:17:05.077Z,13.64
2019-05-26T06:18:05.065Z,13.63
2019-05-26T06:19:05.057Z,13.63
2019-05-26T06:20:05.074Z,13.62
2019-05-26T06:21:05.034Z,13.62
2019-05-26T06:22:05.039Z,13.59
2019-05-26T06:23:05.015Z,13.67
2019-05-26T06:24:05.001Z,13.67
2019-05-26T06:25:05.017Z,13.71
2019-05-26T06:26:04.976Z,13.79
2019-05-26T06:27:04.966Z,13.89
2019-05-26T06:28:04.957Z,13.92
2019-05-26T06:29:04.943Z,13.92
2019-05-26T06:30:04.959Z,14.00
2019-05-26T06:31:04.947Z,13.99
2019-05-26T06:32:05.125Z,13.92
2019-05-26T06:33:04.899Z,14.04
2019-05-26T06:34:04.922Z,13.91
2019-05-26T06:35:04.901Z,14.09
2019-05-26T06:36:04.874Z,14.12
2019-05-26T06:37:04.853Z,14.15
2019-05-26T06:38:04.843Z,14.10
2019-05-26T06:39:04.832Z,14.22
2019-05-26T06:40:04.846Z,14.15
2019-05-26T06:41:04.812Z,14.20
2019-05-26T06:42:04.798Z,14.27
2019-05-26T06:43:04.786Z,14.27
2019-05-26T06:44:04.775Z,14.27
2019-05-26T06:45:04.801Z,14.35
2019-05-26T06:46:04.754Z,14.45
2019-05-26T06:47:04.745Z,14.57
2019-05-26T06:48:04.741Z,14.61
2019-05-26T06:49:04.721Z,14.75
2019-05-26T06:50:04.736Z,14.69
2019-05-26T06:51:04.702Z,14.89
2019-05-26T06:52:04.700Z,14.89
2019-05-26T06:53:04.684Z,14.96
2019-05-26T06:54:04.667Z,15.07
2019-05-26T06:55:04.683Z,15.10
2019-05-26T06:56:04.646Z,15.17
2019-05-26T06:57:04.712Z,15.23
2019-05-26T06:58:04.623Z,15.29
2019-05-26T06:59:04.613Z,15.32
2019-05-26T07:00:04.634Z,15.27
2019-05-26T07:01:04.594Z,15.21
2019-05-26T07:02:04.598Z,15.16
2019-05-26T07:03:04.568Z,15.23
2019-05-26T07:04:04.558Z,15.31
2019-05-26T07:05:04.576Z,15.20
2019-05-26T07:06:04.536Z,15.23
2019-05-26T07:07:04.526Z,15.34
2019-05-26T07:08:04.514Z,15.44
2019-05-26T07:09:04.502Z,15.39
2019-05-26T07:10:04.521Z,15.47
2019-05-26T07:11:04.481Z,15.62
2019-05-26T07:12:04.469Z,15.65
2019-05-26T07:13:04.458Z,15.62
2019-05-26T07:14:04.447Z,15.76
2019-05-26T07:15:04.460Z,15.68
2019-05-26T07:16:04.427Z,15.71
2019-05-26T07:17:04.415Z,15.69
2019-05-26T07:18:04.455Z,15.80
2019-05-26T07:19:04.392Z,15.68
2019-05-26T07:20:04.406Z,15.78
2019-05-26T07:21:04.372Z,15.82
2019-05-26T07:22:04.365Z,15.89
2019-05-26T07:23:06.134Z,15.86
2019-05-26T07:24:04.355Z,15.92
2019-05-26T07:25:04.366Z,16.04
2019-05-26T07:26:04.454Z,16.04
2019-05-26T07:27:04.318Z,16.15
2019-05-26T07:28:04.293Z,16.24
2019-05-26T07:29:04.283Z,16.25
2019-05-26T07:30:04.298Z,16.38
2019-05-26T07:31:04.275Z,16.41
2019-05-26T07:32:04.249Z,16.52
2019-05-26T07:33:04.241Z,16.52
2019-05-26T07:34:04.228Z,16.43
2019-05-26T07:35:04.243Z,16.50
2019-05-26T07:36:04.205Z,16.58
2019-05-26T07:37:04.220Z,16.66
2019-05-26T07:38:04.187Z,16.73
2019-05-26T07:39:04.172Z,16.85
2019-05-26T07:40:04.191Z,16.88
2019-05-26T07:41:04.149Z,16.93
2019-05-26T07:42:10.703Z,17.03
2019-05-26T07:43:05.135Z,16.98
2019-05-26T07:44:04.125Z,17.11
2019-05-26T07:45:25.142Z,17.00
2019-05-26T07:47:12.014Z,17.12
2019-05-26T07:48:12.000Z,17.12
2019-05-26T07:49:12.016Z,16.97
2019-05-26T07:50:12.074Z,17.04
2019-05-26T07:51:11.961Z,17.04
2019-05-26T07:52:11.949Z,17.08
2019-05-26T07:53:11.939Z,17.04
2019-05-26T07:54:24.510Z,17.11
2019-05-26T07:55:12.941Z,17.14
2019-05-26T07:56:11.910Z,17.12
2019-05-26T07:57:11.895Z,17.15
2019-05-26T07:58:11.884Z,17.12
2019-05-26T07:59:11.872Z,17.23
2019-05-26T08:00:11.903Z,17.26
2019-05-26T08:01:11.853Z,17.34
2019-05-26T08:02:11.843Z,17.31
2019-05-26T08:03:11.830Z,17.34
2019-05-26T08:04:11.817Z,17.37
2019-05-26T08:05:11.832Z,17.44
2019-05-26T08:06:11.876Z,17.52
2019-05-26T08:07:11.785Z,17.52
2019-05-26T08:08:13.368Z,17.56
2019-05-26T08:09:11.767Z,17.62
2019-05-26T08:10:11.782Z,17.59
2019-05-26T08:11:11.746Z,17.75
2019-05-26T08:12:24.861Z,17.86
2019-05-26T08:13:12.717Z,18.00
2019-05-26T08:14:11.711Z,17.96
2019-05-26T08:15:11.722Z,18.03
2019-05-26T08:16:11.686Z,18.12
2019-05-26T08:17:11.678Z,18.29
2019-05-26T08:18:11.666Z,18.36
2019-05-26T08:19:11.654Z,18.44
2019-05-26T08:20:11.699Z,18.47
2019-05-26T08:21:11.688Z,18.27
2019-05-26T08:22:11.625Z,18.27
2019-05-26T08:23:11.614Z,18.30
2019-05-26T08:24:11.607Z,18.26
2019-05-26T08:25:11.616Z,18.33
2019-05-26T08:26:11.577Z,18.41
2019-05-26T08:27:11.569Z,18.41
2019-05-26T08:28:11.580Z,18.47
2019-05-26T08:29:11.548Z,18.52
2019-05-26T08:30:11.566Z,18.52
2019-05-26T08:31:13.430Z,18.48
2019-05-26T08:32:11.516Z,18.55
2019-05-26T08:33:11.532Z,18.48
2019-05-26T08:34:11.492Z,18.51
2019-05-26T08:35:11.508Z,18.45
2019-05-26T08:36:11.471Z,18.48
2019-05-26T08:37:11.463Z,18.54
2019-05-26T08:38:11.449Z,18.62
2019-05-26T08:39:11.437Z,18.66
2019-05-26T08:40:11.464Z,18.65
2019-05-26T08:41:11.415Z,18.65
2019-05-26T08:42:24.617Z,18.63
2019-05-26T08:43:12.394Z,18.54
2019-05-26T08:44:11.383Z,18.63
2019-05-26T08:45:11.396Z,18.66
2019-05-26T08:46:11.360Z,18.66
2019-05-26T08:47:11.353Z,18.67
2019-05-26T08:48:11.343Z,18.63
2019-05-26T08:49:11.327Z,18.60
2019-05-26T08:50:11.343Z,18.75
2019-05-26T08:51:11.305Z,18.78
2019-05-26T08:52:11.296Z,18.60
2019-05-26T08:53:11.282Z,18.52
2019-05-26T08:54:11.274Z,18.55
2019-05-26T08:55:11.285Z,18.66
2019-05-26T08:56:11.254Z,18.69
2019-05-26T08:57:11.238Z,18.75
2019-05-26T08:58:11.229Z,18.69
2019-05-26T08:59:11.218Z,18.69
2019-05-26T09:00:11.230Z,18.85
2019-05-26T09:01:11.194Z,18.92
2019-05-26T09:02:11.181Z,18.95
2019-05-26T09:03:11.169Z,18.99
2019-05-26T09:04:11.157Z,18.84
2019-05-26T09:05:11.173Z,18.91
2019-05-26T09:06:11.137Z,18.98
2019-05-26T09:07:11.125Z,18.92
2019-05-26T09:08:11.116Z,19.02
2019-05-26T09:09:11.103Z,19.02
2019-05-26T09:10:11.123Z,19.02
2019-05-26T09:11:11.081Z,18.95
2019-05-26T09:12:11.072Z,19.02
2019-05-26T09:13:11.062Z,18.99
2019-05-26T09:14:11.065Z,19.07
2019-05-26T09:15:11.070Z,19.10
2019-05-26T09:16:11.030Z,19.19
2019-05-26T09:17:11.017Z,19.02
2019-05-26T09:18:11.004Z,19.10
2019-05-26T09:19:10.993Z,19.25
2019-05-26T09:20:11.960Z,19.22
2019-05-26T09:21:10.973Z,19.31
2019-05-26T09:22:10.960Z,19.37
2019-05-26T09:23:10.950Z,19.44
2019-05-26T09:24:10.940Z,19.43
2019-05-26T09:25:10.953Z,19.51
2019-05-26T09:26:10.922Z,19.54
2019-05-26T09:27:10.907Z,19.50
2019-05-26T09:28:10.894Z,19.80
2019-05-26T09:29:10.886Z,19.76
2019-05-26T09:30:10.900Z,19.88
2019-05-26T09:31:10.864Z,20.02
2019-05-26T09:32:10.853Z,20.14
2019-05-26T09:33:10.844Z,20.01
2019-05-26T09:34:10.833Z,20.10
2019-05-26T09:35:10.847Z,20.10
2019-05-26T09:36:10.811Z,20.16
2019-05-26T09:37:10.805Z,20.02
2019-05-26T09:38:10.791Z,19.94
2019-05-26T09:39:10.780Z,19.96
2019-05-26T09:40:10.796Z,19.96
2019-05-26T09:41:10.758Z,19.96
2019-05-26T09:42:10.748Z,20.01
2019-05-26T09:43:16.137Z,19.99
2019-05-26T09:44:11.724Z,20.01
2019-05-26T09:45:10.739Z,20.05
2019-05-26T09:46:10.702Z,20.06
2019-05-26T09:47:10.695Z,20.06
2019-05-26T09:48:10.680Z,19.99
2019-05-26T09:49:10.679Z,19.96
2019-05-26T09:50:10.692Z,20.01
2019-05-26T09:51:10.649Z,20.13
2019-05-26T09:52:10.638Z,20.16
2019-05-26T09:53:10.626Z,20.03
2019-05-26T09:54:12.609Z,20.14
2019-05-26T09:55:10.633Z,20.24
2019-05-26T09:56:10.603Z,20.31
2019-05-26T09:57:10.584Z,20.28
2019-05-26T09:58:10.571Z,20.33
2019-05-26T09:59:10.561Z,20.32
2019-05-26T10:00:10.576Z,20.39
2019-05-26T10:01:10.538Z,20.52
2019-05-26T10:02:10.530Z,20.51
2019-05-26T10:03:10.519Z,20.58
2019-05-26T10:04:10.617Z,20.69
2019-05-26T10:05:10.521Z,20.72
2019-05-26T10:06:10.483Z,20.76
2019-05-26T10:07:14.879Z,20.72
2019-05-26T10:08:11.463Z,20.72
2019-05-26T10:09:10.450Z,20.67
2019-05-26T10:10:10.468Z,20.76
2019-05-26T10:11:10.428Z,20.79
2019-05-26T10:12:10.424Z,20.88
2019-05-26T10:13:10.429Z,20.84
2019-05-26T10:14:10.426Z,20.82
2019-05-26T10:15:10.409Z,20.85
2019-05-26T10:16:10.391Z,21.03
2019-05-26T10:17:10.360Z,21.01
2019-05-26T10:18:10.353Z,20.99
2019-05-26T10:19:10.340Z,21.14
2019-05-26T10:20:10.355Z,21.22
2019-05-26T10:21:10.324Z,21.06
2019-05-26T10:22:10.321Z,20.97
2019-05-26T10:23:10.297Z,20.85
2019-05-26T10:24:10.288Z,20.88
2019-05-26T10:25:10.302Z,20.67
2019-05-26T10:26:10.267Z,20.87
2019-05-26T10:27:10.368Z,20.67
2019-05-26T10:28:10.244Z,20.87
2019-05-26T10:29:10.240Z,20.87
2019-05-26T10:30:10.404Z,20.98
2019-05-26T10:31:10.218Z,21.06
2019-05-26T10:32:10.206Z,21.10
2019-05-26T10:33:10.220Z,21.13
2019-05-26T10:34:13.602Z,21.10
2019-05-26T10:35:10.195Z,21.17
2019-05-26T10:36:10.163Z,21.29
2019-05-26T10:37:10.149Z,21.27
2019-05-26T10:38:10.138Z,21.37
2019-05-26T10:39:10.128Z,21.25
2019-05-26T10:40:10.143Z,21.37
2019-05-26T10:41:10.109Z,21.35
2019-05-26T10:42:10.095Z,21.32
2019-05-26T10:43:10.094Z,21.22
2019-05-26T10:44:10.074Z,21.21
2019-05-26T10:45:10.091Z,21.19
2019-05-26T10:46:10.056Z,21.25
2019-05-26T10:47:10.061Z,21.34
2019-05-26T10:48:10.036Z,21.25
2019-05-26T10:49:10.026Z,21.31
2019-05-26T10:50:10.151Z,21.27
2019-05-26T10:51:10.016Z,21.32
2019-05-26T10:52:10.009Z,21.53
2019-05-26T10:53:09.979Z,21.62
2019-05-26T10:54:09.969Z,21.68
2019-05-26T10:55:09.981Z,21.80
2019-05-26T10:56:09.944Z,21.88
2019-05-26T10:57:09.932Z,21.91
2019-05-26T10:58:09.921Z,21.91
2019-05-26T10:59:09.911Z,21.91
2019-05-26T11:00:09.926Z,21.92
2019-05-26T11:01:09.892Z,21.84
2019-05-26T11:02:09.878Z,21.98
2019-05-26T11:03:09.873Z,22.07
2019-05-26T11:04:09.855Z,22.14
2019-05-26T11:05:09.870Z,22.12
2019-05-26T11:06:09.833Z,21.94
2019-05-26T11:07:09.823Z,22.24
2019-05-26T11:08:09.812Z,22.42
2019-05-26T11:09:09.802Z,22.57
2019-05-26T11:10:09.816Z,22.54
2019-05-26T11:11:09.783Z,22.47
2019-05-26T11:12:09.773Z,22.37
2019-05-26T11:13:09.762Z,22.21
2019-05-26T11:14:09.748Z,22.10
2019-05-26T11:15:09.769Z,22.09
2019-05-26T11:16:09.727Z,22.10
2019-05-26T11:17:09.718Z,22.03
2019-05-26T11:18:09.707Z,22.27
2019-05-26T11:19:09.696Z,22.47
2019-05-26T11:20:09.709Z,22.76
2019-05-26T11:21:12.325Z,22.76
2019-05-26T11:22:09.665Z,22.90
2019-05-26T11:23:09.654Z,23.00
2019-05-26T11:24:09.642Z,22.90
2019-05-26T11:25:09.657Z,22.95
2019-05-26T11:26:09.627Z,22.90
2019-05-26T11:27:12.458Z,22.62
2019-05-26T11:28:09.597Z,22.58
2019-05-26T11:29:09.591Z,22.40
2019-05-26T11:30:09.601Z,22.33
2019-05-26T11:31:09.565Z,22.40
2019-05-26T11:32:09.567Z,22.39
2019-05-26T11:33:09.541Z,22.24
2019-05-26T11:34:09.536Z,22.21
2019-05-26T11:35:09.545Z,22.20
2019-05-26T11:36:09.556Z,22.22
2019-05-26T11:37:09.502Z,22.25
2019-05-26T11:38:09.498Z,22.36
2019-05-26T11:39:09.477Z,22.57
2019-05-26T11:40:09.490Z,22.70
2019-05-26T11:41:09.478Z,22.95
2019-05-26T11:42:15.813Z,23.58
2019-05-26T11:43:16.860Z,23.68
2019-05-26T11:44:18.065Z,23.65
2019-05-26T11:45:10.436Z,24.08
2019-05-26T11:46:09.399Z,23.93
2019-05-26T11:47:09.392Z,24.06
2019-05-26T11:48:09.377Z,23.84
2019-05-26T11:49:09.367Z,23.76
2019-05-26T11:50:09.383Z,24.02
2019-05-26T11:51:09.349Z,23.83
2019-05-26T11:52:09.340Z,24.32
2019-05-26T11:53:09.328Z,24.57
2019-05-26T11:54:09.314Z,24.21
2019-05-26T11:55:09.328Z,24.12
2019-05-26T11:56:09.292Z,24.02
2019-05-26T11:57:09.281Z,24.00
2019-05-26T11:58:09.276Z,23.79
2019-05-26T11:59:09.259Z,23.75
2019-05-26T12:00:10.370Z,23.61
2019-05-26T12:01:09.238Z,23.48
2019-05-26T12:02:09.234Z,23.23
2019-05-26T12:03:09.218Z,23.13
2019-05-26T12:04:09.205Z,23.10
2019-05-26T12:05:09.223Z,23.10
2019-05-26T12:06:09.188Z,22.98
2019-05-26T12:07:09.173Z,23.10
2019-05-26T12:08:09.170Z,23.10
2019-05-26T12:09:09.154Z,23.32
2019-05-26T12:10:13.375Z,23.48
2019-05-26T12:11:09.130Z,23.73
2019-05-26T12:12:09.121Z,23.85
2019-05-26T12:13:09.109Z,24.10
2019-05-26T12:14:09.104Z,23.91
2019-05-26T12:15:09.112Z,23.87
2019-05-26T12:16:09.074Z,23.83
2019-05-26T12:17:09.064Z,23.73
2019-05-26T12:18:09.053Z,23.78
2019-05-26T12:19:09.061Z,23.73
2019-05-26T12:20:09.063Z,23.72
2019-05-26T12:21:09.020Z,23.72
2019-05-26T12:22:09.010Z,23.73
2019-05-26T12:23:09.018Z,23.63
2019-05-26T12:24:08.987Z,23.58
2019-05-26T12:25:09.005Z,23.47
2019-05-26T12:26:08.971Z,23.48
2019-05-26T12:27:08.972Z,23.42
2019-05-26T12:28:08.947Z,23.43
2019-05-26T12:29:08.934Z,23.25
2019-05-26T12:30:08.949Z,23.31
2019-05-26T12:31:08.914Z,23.20
2019-05-26T12:32:08.902Z,23.23
2019-05-26T12:33:08.893Z,23.13
2019-05-26T12:34:08.880Z,23.16
2019-05-26T12:35:08.905Z,23.00
2019-05-26T12:36:08.862Z,23.07
2019-05-26T12:37:08.851Z,22.94
2019-05-26T12:38:08.838Z,22.91
2019-05-26T12:39:08.826Z,22.92
2019-05-26T12:40:08.877Z,22.83
2019-05-26T12:41:08.807Z,22.85
2019-05-26T12:42:08.832Z,22.95
2019-05-26T12:43:08.787Z,23.13
2019-05-26T12:44:10.942Z,22.95
2019-05-26T12:45:08.802Z,23.07
2019-05-26T12:46:08.754Z,23.28
2019-05-26T12:47:08.742Z,23.54
2019-05-26T12:48:08.731Z,23.72
2019-05-26T12:49:08.722Z,23.84
2019-05-26T12:50:08.743Z,23.85
2019-05-26T12:51:08.702Z,24.06
2019-05-26T12:52:08.691Z,24.28
2019-05-26T12:53:08.679Z,24.21
2019-05-26T12:54:08.669Z,24.12
2019-05-26T12:55:09.914Z,24.05
2019-05-26T12:56:08.646Z,23.83